• Join FlightAware (Why Join?)
  • Login
  • US Flag 
03:42AM EDT


 

Airport Tracker/Info


-or-


 

Live Flight TrackerFlight Track Log ✈ QJE1737 ✈ 19-Apr-2013 ✈ YBRK / ROK - YBBN / BNE

Flight Track Log - Related Links

Times and Time Zones

All times are in EDT time to prevent confusion due to time zone crossing. See the QJE1737 flight status page for this flight to view local times or setup timezone preferences in your user account.

Time Position Orientation Groundspeed Altitude Reporting Facility
EDT Latitude Longitude Course Direction KTS MPH feet Rate Location/Type
10:50PM -23.3489 150.4618 78° East 155 178 1,800  Level Aus ATC (RADAR)
10:51PM -23.3394 150.5121 78° East 242 278 3,700 2,220 Climbing Aus ATC (RADAR)
10:51PM -23.3776 150.5253 162° South 250 288 5,300 3,540 Climbing Aus ATC (RADAR)
10:52PM -23.4376 150.5459 163° South 244 281 9,000 3,300 Climbing Aus ATC (RADAR)
10:53PM -23.4880 150.6066 132° Southeast 273 314 12,000 2,280 Climbing Aus ATC (RADAR)
10:54PM -23.5412 150.6288 159° South 310 357 13,000 1,740 Climbing Aus ATC (RADAR)
10:54PM -23.5776 150.6424 161° South 331 381 13,900 1,620 Climbing Aus ATC (RADAR)
10:55PM -23.6324 150.6637 160° South 360 414 14,700 1,680 Climbing Aus ATC (RADAR)
10:56PM -23.7082 150.6931 160° South 388 447 16,200 2,040 Climbing Aus ATC (RADAR)
10:56PM -23.7701 150.7169 161° South 406 467 17,400 2,100 Climbing Aus ATC (RADAR)
10:57PM -23.8700 150.7555 161° South 418 481 19,400 1,860 Climbing Aus ATC (RADAR)
10:58PM -24.0343 150.8187 161° South 452 520 21,800 1,860 Climbing Aus ATC (RADAR)
10:59PM -24.1226 150.8530 160° South 451 519 23,400 1,980 Climbing Aus ATC (RADAR)
11:00PM -24.1723 150.8725 160° South 455 524 24,100 2,580 Climbing Aus ATC (RADAR)
11:00PM -24.2405 150.8992 160° South 447 514 26,000 2,220 Climbing Aus ATC (RADAR)
11:01PM -24.3271 150.9324 161° South 440 506 27,100 720 Climbing Aus ATC (RADAR)
11:02PM -24.3900 150.9574 160° South 412 474 27,000 -120 Descending Aus ATC (RADAR)
11:03PM -24.4953 150.9983 161° South 400 460 27,000  Level Aus ATC (RADAR)
11:04PM -24.6528 151.0593 161° South 399 459 27,000  Level Aus ATC (RADAR)
11:04PM -24.6789 151.0697 160° South 398 458 27,000  Level Aus ATC (RADAR)
11:05PM -24.7492 151.0965 161° South 401 461 27,000  Level Aus ATC (RADAR)
11:06PM -24.8456 151.1341 161° South 401 461 27,000  Level Aus ATC (RADAR)
11:06PM -24.9066 151.1591 160° South 399 459 27,000  Level Aus ATC (RADAR)
11:07PM -25.0023 151.1961 161° South 399 459 27,000  Level Aus ATC (RADAR)
11:09PM -25.1233 151.2435 160° South 394 453 27,000  Level Aus ATC (RADAR)
11:09PM -25.1834 151.2674 160° South 391 450 27,000  Level Aus ATC (RADAR)
11:10PM -25.2686 151.3023 160° South 391 450 27,000 -60 Level Aus ATC (RADAR)
11:11PM -25.3628 151.3398 160° South 391 450 26,900 -120 Descending Aus ATC (RADAR)
11:11PM -25.4246 151.3643 160° South 406 467 26,900  Level Aus ATC (RADAR)
11:12PM -25.5232 151.4025 161° South 407 468 26,900  Level Aus ATC (RADAR)
11:14PM -25.6575 151.4561 160° South 409 471 26,900  Level Aus ATC (RADAR)
11:14PM -25.7197 151.4818 160° South 407 468 26,900  Level Aus ATC (RADAR)
11:14PM -25.7463 151.4953 155° Southeast 415 478 26,900  Level Aus ATC (RADAR)
11:15PM -25.7989 151.5433 141° Southeast 414 476 26,900  Level Aus ATC (RADAR)
11:16PM -25.8935 151.6394 138° Southeast 423 487 26,900  Level Aus ATC (RADAR)
11:17PM -25.9444 151.6910 138° Southeast 422 486 26,900  Level Aus ATC (RADAR)
11:18PM -26.0247 151.7709 138° Southeast 419 482 26,900 -180 Level Aus ATC (RADAR)
11:19PM -26.1875 151.9338 138° Southeast 393 452 26,500 -420 Descending Aus ATC (RADAR)
11:20PM -26.2073 151.9552 136° Southeast 392 451 26,000 -1,560 Descending Aus ATC (RADAR)
11:20PM -26.2545 152.0008 139° Southeast 380 437 25,200 -1,440 Descending Aus ATC (RADAR)
11:21PM -26.3316 152.0804 137° Southeast 369 425 23,800 -1,440 Descending Aus ATC (RADAR)
11:22PM -26.3759 152.1239 139° Southeast 360 414 23,000 -1,320 Descending Aus ATC (RADAR)
11:23PM -26.4365 152.1852 138° Southeast 346 398 22,000 -1,380 Descending Aus ATC (RADAR)
11:24PM -26.5350 152.2848 138° Southeast 324 373 20,000 -1,320 Descending Aus ATC (RADAR)
11:24PM -26.5516 152.3020 137° Southeast 322 371 19,800 -1,320 Descending Aus ATC (RADAR)
11:25PM -26.5899 152.3400 138° Southeast 312 359 18,900 -1,380 Descending Aus ATC (RADAR)
11:26PM -26.6784 152.4304 138° Southeast 296 341 17,100 -1,320 Descending Aus ATC (RADAR)
11:27PM -26.7337 152.4871 138° Southeast 288 331 15,900 -1,320 Descending Aus ATC (RADAR)
11:28PM -26.7484 152.5022 138° Southeast 284 327 15,600 -960 Descending Aus ATC (RADAR)
11:29PM -26.8461 152.6023 138° Southeast 256 295 14,000 -840 Descending Aus ATC (RADAR)
11:30PM -26.8775 152.6343 138° Southeast 258 297 13,700 -960 Descending Aus ATC (RADAR)
11:30PM -26.8911 152.6480 138° Southeast 259 298 13,200 -3,000 Descending Aus ATC (RADAR)
11:31PM -26.9254 152.6825 138° Southeast 279 321 11,200 -1,920 Descending Aus ATC (RADAR)
11:32PM -26.9839 152.7437 137° Southeast 307 353 10,400 -1,140 Descending Aus ATC (RADAR)
11:32PM -27.0203 152.7816 137° Southeast 301 346 9,500 -1,560 Descending Aus ATC (RADAR)
11:33PM -27.0771 152.8401 137° Southeast 295 339 8,100 -1,500 Descending Aus ATC (RADAR)
11:34PM -27.1223 152.8874 137° Southeast 286 329 7,000 -1,440 Descending Aus ATC (RADAR)
11:34PM -27.1366 152.9022 137° Southeast 279 321 6,700 -1,320 Descending Aus ATC (RADAR)
11:35PM -27.1510 152.9646 105° East 274 315 5,700 -1,200 Descending Aus ATC (RADAR)
11:36PM -27.1534 153.0228 93° East 274 315 5,000 -1,080 Descending Aus ATC (RADAR)
11:36PM -27.1670 153.0897 103° East 256 295 4,100 -1,080 Descending Aus ATC (RADAR)
11:37PM -27.1817 153.1307 112° Southeast 237 273 3,500 -900 Descending Aus ATC (RADAR)
11:38PM -27.2191 153.1733 135° Southeast 202 232 2,800 -780 Descending Aus ATC (RADAR)
11:39PM -27.2821 153.1785 176° South 184 212 1,900 -720 Descending Aus ATC (RADAR)
11:40PM -27.3100 153.1711 193° South 157 181 1,500 -780 Descending Aus ATC (RADAR)
11:40PM -27.3335 153.1579 206° Southwest 139 160 900 -780 Descending Aus ATC (RADAR)
11:41PM -27.3598 153.1432 206° Southwest 128 147 400 -600 Descending Aus ATC (RADAR)
11:41PM -27.3677 153.1384 209° Southwest 129 148 300 -420 Descending Aus ATC (RADAR)